createdAt,value
2023-05-19T00:00:51.457Z,8.74
2023-05-19T00:03:21.598Z,8.61
2023-05-19T00:05:48.826Z,8.61
2023-05-19T00:08:19.034Z,8.65
2023-05-19T00:10:45.921Z,8.56
2023-05-19T00:13:12.727Z,8.46
2023-05-19T00:15:40.033Z,8.68
2023-05-19T00:18:08.915Z,8.74
2023-05-19T00:20:35.407Z,8.71
2023-05-19T00:23:01.841Z,8.64
2023-05-19T00:25:28.337Z,8.65
2023-05-19T00:27:54.686Z,8.54
2023-05-19T00:30:22.848Z,8.53
2023-05-19T00:32:49.355Z,8.53
2023-05-19T00:35:16.566Z,8.44
2023-05-19T00:37:42.889Z,8.32
2023-05-19T00:40:10.136Z,8.18
2023-05-19T00:42:36.756Z,8.07
2023-05-19T00:45:03.312Z,8.02
2023-05-19T00:47:29.837Z,7.89
2023-05-19T00:49:56.271Z,7.90
2023-05-19T00:52:23.046Z,7.86
2023-05-19T00:54:51.339Z,7.80
2023-05-19T00:57:18.030Z,7.75
2023-05-19T00:59:44.582Z,7.81
2023-05-19T01:02:11.189Z,7.80
2023-05-19T01:04:41.718Z,7.73
2023-05-19T01:07:08.306Z,7.72
2023-05-19T01:09:34.795Z,7.65
2023-05-19T01:12:01.463Z,7.58
2023-05-19T01:14:28.735Z,7.55
2023-05-19T01:17:15.033Z,7.68
2023-05-19T01:19:56.337Z,7.58
2023-05-19T01:22:34.343Z,7.47
2023-05-19T01:25:31.855Z,7.35
2023-05-19T01:28:27.055Z,7.30
2023-05-19T01:30:55.490Z,7.26
2023-05-19T01:33:24.211Z,7.37
2023-05-19T01:35:51.626Z,7.31
2023-05-19T01:38:20.176Z,7.21
2023-05-19T01:40:47.601Z,7.19
2023-05-19T01:43:18.767Z,7.20
2023-05-19T01:45:45.477Z,7.18
2023-05-19T01:48:13.232Z,7.14
2023-05-19T01:50:41.296Z,7.12
2023-05-19T01:53:08.075Z,7.13
2023-05-19T01:55:40.515Z,7.09
2023-05-19T01:58:17.385Z,7.09
2023-05-19T02:01:11.133Z,7.16
2023-05-19T02:03:53.616Z,7.24
2023-05-19T02:06:32.840Z,7.32
2023-05-19T02:09:15.336Z,7.33
2023-05-19T02:12:06.052Z,7.40
2023-05-19T02:14:56.973Z,7.52
2023-05-19T02:17:23.548Z,7.58
2023-05-19T02:19:50.739Z,7.50
2023-05-19T02:22:17.077Z,7.44
2023-05-19T02:24:44.990Z,7.41
2023-05-19T02:27:11.425Z,7.40
2023-05-19T02:29:37.797Z,7.34
2023-05-19T02:32:04.528Z,7.30
2023-05-19T02:34:31.403Z,7.27
2023-05-19T02:36:57.788Z,7.29
2023-05-19T02:39:24.158Z,7.24
2023-05-19T02:41:50.539Z,7.21
2023-05-19T02:44:17.004Z,7.25
2023-05-19T02:46:43.519Z,7.16
2023-05-19T02:49:09.915Z,7.17
2023-05-19T02:51:36.332Z,7.15
2023-05-19T02:54:02.725Z,7.24
2023-05-19T02:56:29.224Z,7.20
2023-05-19T02:58:56.138Z,7.25
2023-05-19T03:01:23.103Z,7.24
2023-05-19T03:03:49.720Z,7.22
2023-05-19T03:06:17.864Z,7.26
2023-05-19T03:08:44.867Z,7.35
2023-05-19T03:11:11.271Z,7.31
2023-05-19T03:13:37.685Z,7.32
2023-05-19T03:16:04.129Z,7.33
2023-05-19T03:18:30.660Z,7.23
2023-05-19T03:20:57.057Z,7.35
2023-05-19T03:23:23.604Z,7.27
2023-05-19T03:25:50.781Z,7.26
2023-05-19T03:28:17.198Z,7.21
2023-05-19T03:30:43.709Z,7.18
2023-05-19T03:33:10.464Z,7.20
2023-05-19T03:35:37.089Z,7.17
2023-05-19T03:38:03.458Z,7.18
2023-05-19T03:40:29.979Z,7.22
2023-05-19T03:42:56.675Z,7.29
2023-05-19T03:45:23.076Z,7.37
2023-05-19T03:47:49.522Z,7.31
2023-05-19T03:50:15.892Z,7.23
2023-05-19T03:52:45.452Z,7.15
2023-05-19T03:55:12.448Z,7.09
2023-05-19T03:57:38.829Z,7.06
2023-05-19T04:00:06.119Z,7.03
2023-05-19T04:02:32.569Z,6.98
2023-05-19T04:04:59.036Z,6.96
2023-05-19T04:07:25.715Z,6.96
2023-05-19T04:09:52.148Z,7.00
2023-05-19T04:12:18.611Z,7.05
2023-05-19T04:14:45.162Z,7.15
2023-05-19T04:17:11.931Z,7.19
2023-05-19T04:19:38.294Z,7.27
2023-05-19T04:22:04.891Z,7.40
2023-05-19T04:24:31.477Z,7.45
2023-05-19T04:27:02.406Z,7.47
2023-05-19T04:29:29.452Z,7.53
2023-05-19T04:31:57.149Z,7.58
2023-05-19T04:34:23.548Z,7.61
2023-05-19T04:36:53.084Z,7.65
2023-05-19T04:39:19.922Z,7.73
2023-05-19T04:41:46.310Z,7.79
2023-05-19T04:44:13.671Z,7.88
2023-05-19T04:46:40.109Z,8.02
2023-05-19T04:49:06.607Z,8.21
2023-05-19T04:51:33.053Z,8.28
2023-05-19T04:53:59.410Z,8.40
2023-05-19T04:56:27.304Z,8.47
2023-05-19T04:58:53.736Z,8.51
2023-05-19T05:01:22.532Z,8.56
2023-05-19T05:03:49.127Z,8.61
2023-05-19T05:06:16.245Z,8.66
2023-05-19T05:08:42.616Z,8.73
2023-05-19T05:11:09.445Z,8.85
2023-05-19T05:13:36.095Z,9.11
2023-05-19T05:16:06.400Z,9.32
2023-05-19T05:18:33.661Z,9.52
2023-05-19T05:21:00.418Z,9.63
2023-05-19T05:23:27.344Z,9.84
2023-05-19T05:25:54.024Z,10.05
2023-05-19T05:28:20.715Z,10.23
2023-05-19T05:30:47.150Z,10.45
2023-05-19T05:33:13.843Z,10.65
2023-05-19T05:35:40.558Z,10.97
2023-05-19T05:38:06.918Z,11.17
2023-05-19T05:40:33.403Z,11.25
2023-05-19T05:42:59.810Z,11.43
2023-05-19T05:45:26.239Z,11.55
2023-05-19T05:47:53.021Z,11.69
2023-05-19T05:50:19.770Z,12.26
2023-05-19T05:52:47.292Z,12.96
2023-05-19T05:55:14.424Z,12.97
2023-05-19T05:57:43.452Z,12.93
2023-05-19T06:00:15.289Z,12.97
2023-05-19T06:02:47.261Z,13.05
2023-05-19T06:05:13.935Z,13.07
2023-05-19T06:07:40.976Z,13.09
2023-05-19T06:10:08.853Z,13.17
2023-05-19T06:12:36.088Z,13.26
2023-05-19T06:15:03.458Z,13.37
2023-05-19T06:17:30.014Z,13.47
2023-05-19T06:19:56.501Z,13.77
2023-05-19T06:22:22.862Z,14.85
2023-05-19T06:24:49.242Z,15.21
2023-05-19T06:27:15.591Z,14.66
2023-05-19T06:29:41.988Z,14.49
2023-05-19T06:32:08.342Z,14.31
2023-05-19T06:34:34.673Z,14.24
2023-05-19T06:37:02.307Z,14.27
2023-05-19T06:39:28.700Z,14.34
2023-05-19T06:41:55.075Z,14.38
2023-05-19T06:44:22.729Z,14.40
2023-05-19T06:46:49.207Z,14.47
2023-05-19T06:49:15.765Z,14.59
2023-05-19T06:51:42.153Z,14.80
2023-05-19T06:54:10.981Z,14.71
2023-05-19T06:56:37.376Z,15.03
2023-05-19T06:59:04.063Z,15.66
2023-05-19T07:01:30.973Z,16.49
2023-05-19T07:03:57.658Z,17.07
2023-05-19T07:06:24.090Z,18.26
2023-05-19T07:08:50.595Z,18.87
2023-05-19T07:11:17.655Z,19.50
2023-05-19T07:13:44.031Z,19.39
2023-05-19T07:16:10.623Z,19.69
2023-05-19T07:18:37.177Z,20.20
2023-05-19T07:21:03.690Z,19.76
2023-05-19T07:23:30.038Z,20.02
2023-05-19T07:25:56.801Z,19.25
2023-05-19T07:28:23.402Z,18.66
2023-05-19T07:30:49.846Z,18.60
2023-05-19T07:33:16.296Z,18.73
2023-05-19T07:35:42.797Z,18.89
2023-05-19T07:38:09.117Z,18.88
2023-05-19T07:40:35.467Z,18.58
2023-05-19T07:43:01.781Z,17.94
2023-05-19T07:45:28.170Z,17.88
2023-05-19T07:47:54.729Z,18.72
2023-05-19T07:50:21.172Z,19.52
2023-05-19T07:52:47.555Z,19.55
2023-05-19T07:55:14.859Z,19.80
2023-05-19T07:57:41.446Z,20.44
2023-05-19T08:00:09.890Z,20.36
2023-05-19T08:02:36.341Z,20.32
2023-05-19T08:05:02.928Z,19.60
2023-05-19T08:07:29.299Z,19.39
2023-05-19T08:09:55.760Z,19.00
2023-05-19T08:12:22.093Z,18.45
2023-05-19T08:14:48.470Z,18.61
2023-05-19T08:17:14.857Z,18.48
2023-05-19T08:19:41.341Z,18.69
2023-05-19T08:22:10.832Z,18.32
2023-05-19T08:24:37.271Z,18.48
2023-05-19T08:27:04.771Z,18.33
2023-05-19T08:29:31.823Z,18.34
2023-05-19T08:31:58.464Z,17.98
2023-05-19T08:34:24.861Z,17.82
2023-05-19T08:36:51.364Z,17.94
2023-05-19T08:39:19.573Z,17.91
2023-05-19T08:41:45.974Z,18.06
2023-05-19T08:44:12.369Z,17.84
2023-05-19T08:46:39.046Z,18.22
2023-05-19T08:49:13.034Z,18.32
2023-05-19T08:52:01.581Z,17.94
2023-05-19T08:54:35.856Z,18.08
2023-05-19T08:57:02.697Z,18.43
2023-05-19T08:59:30.200Z,18.58
2023-05-19T09:01:59.785Z,18.34
2023-05-19T09:04:30.022Z,18.16
2023-05-19T09:06:56.861Z,18.06
2023-05-19T09:09:23.253Z,18.08
2023-05-19T09:11:51.796Z,18.15
2023-05-19T09:14:18.167Z,18.25
2023-05-19T09:16:45.765Z,18.20
2023-05-19T09:19:17.486Z,18.26
2023-05-19T09:21:45.572Z,18.37
2023-05-19T09:24:11.958Z,18.53
2023-05-19T09:26:39.808Z,18.41
2023-05-19T09:29:16.701Z,18.28
2023-05-19T09:31:50.637Z,18.31
2023-05-19T09:34:17.654Z,18.44
2023-05-19T09:36:44.237Z,18.83
2023-05-19T09:39:15.102Z,19.40
2023-05-19T09:41:41.549Z,19.88
2023-05-19T09:44:12.260Z,19.97
2023-05-19T09:46:38.734Z,19.79
2023-05-19T09:49:09.566Z,19.93
2023-05-19T09:51:37.478Z,19.51
2023-05-19T09:54:04.509Z,19.60
2023-05-19T09:56:39.346Z,19.15
2023-05-19T09:59:07.179Z,19.35
2023-05-19T10:01:36.187Z,19.64
2023-05-19T10:04:05.909Z,19.90
2023-05-19T10:06:32.675Z,20.15
2023-05-19T10:09:00.066Z,20.37
2023-05-19T10:11:27.448Z,20.84
2023-05-19T10:13:53.883Z,21.12
2023-05-19T10:16:22.062Z,20.80
2023-05-19T10:18:51.413Z,20.78
2023-05-19T10:21:18.226Z,20.74
2023-05-19T10:23:44.562Z,20.69
2023-05-19T10:26:11.809Z,20.86
2023-05-19T10:28:40.879Z,21.15
2023-05-19T10:31:11.262Z,21.26
2023-05-19T10:34:05.100Z,21.36
2023-05-19T10:36:49.532Z,21.32
2023-05-19T10:39:28.110Z,21.59
2023-05-19T10:42:19.380Z,21.86
2023-05-19T10:44:57.547Z,21.27
2023-05-19T10:47:27.571Z,21.50
2023-05-19T10:49:54.251Z,21.28
2023-05-19T10:52:23.126Z,21.45
2023-05-19T10:54:49.723Z,21.75
2023-05-19T10:57:17.286Z,22.34
2023-05-19T10:59:47.381Z,22.98
2023-05-19T11:02:43.166Z,23.41
2023-05-19T11:05:18.085Z,23.47
2023-05-19T11:07:56.000Z,23.43
2023-05-19T11:10:25.606Z,23.67
2023-05-19T11:12:52.458Z,24.01
2023-05-19T11:15:25.553Z,23.16
2023-05-19T11:17:52.428Z,23.10
2023-05-19T11:20:29.789Z,22.93
2023-05-19T11:23:10.527Z,23.37
2023-05-19T11:25:51.415Z,23.58
2023-05-19T11:28:20.451Z,23.43
2023-05-19T11:30:51.763Z,22.60
2023-05-19T11:33:19.476Z,21.99
2023-05-19T11:35:47.178Z,21.88
2023-05-19T11:38:14.139Z,21.74
2023-05-19T11:40:42.323Z,21.95
2023-05-19T11:43:08.693Z,22.35
2023-05-19T11:45:35.796Z,22.50
2023-05-19T11:48:03.866Z,22.66
2023-05-19T11:50:31.798Z,22.50
2023-05-19T11:53:00.812Z,22.49
2023-05-19T11:55:27.814Z,22.47
2023-05-19T11:58:04.411Z,22.57
2023-05-19T12:00:40.033Z,23.07
2023-05-19T12:03:07.834Z,23.13
2023-05-19T12:05:41.812Z,23.16
2023-05-19T12:08:10.234Z,23.08
2023-05-19T12:10:36.916Z,23.35
2023-05-19T12:13:03.626Z,23.48
2023-05-19T12:15:31.541Z,23.65
2023-05-19T12:18:00.238Z,23.42
2023-05-19T12:20:28.400Z,23.35
2023-05-19T12:22:59.186Z,23.63
2023-05-19T12:25:25.742Z,24.05
2023-05-19T12:27:56.153Z,24.14
2023-05-19T12:30:28.698Z,23.99
2023-05-19T12:32:58.156Z,23.77
2023-05-19T12:35:30.069Z,24.17
2023-05-19T12:37:56.478Z,24.37
2023-05-19T12:40:23.101Z,24.20
2023-05-19T12:42:51.931Z,24.00
2023-05-19T12:45:21.825Z,24.03
2023-05-19T12:47:49.219Z,23.90
2023-05-19T12:50:16.084Z,24.05
2023-05-19T12:52:45.956Z,24.03
2023-05-19T12:55:13.986Z,24.10
2023-05-19T12:57:41.910Z,23.10
2023-05-19T13:00:17.605Z,23.29
2023-05-19T13:03:00.456Z,23.33
2023-05-19T13:05:31.385Z,22.60
2023-05-19T13:07:58.778Z,22.66
2023-05-19T13:10:29.363Z,22.27
2023-05-19T13:12:56.726Z,22.76
2023-05-19T13:15:25.094Z,23.08
2023-05-19T13:17:51.785Z,23.64
2023-05-19T13:20:18.695Z,23.41
2023-05-19T13:22:45.069Z,23.69
2023-05-19T13:25:11.417Z,23.67
2023-05-19T13:27:37.967Z,23.89
2023-05-19T13:30:05.040Z,23.79
2023-05-19T13:32:31.511Z,23.28
2023-05-19T13:34:58.583Z,23.13
2023-05-19T13:37:25.043Z,22.70
2023-05-19T13:39:51.638Z,22.42
2023-05-19T13:42:18.044Z,22.12
2023-05-19T13:44:47.852Z,22.01
2023-05-19T13:47:14.385Z,22.15
2023-05-19T13:49:41.615Z,22.36
2023-05-19T13:52:08.257Z,22.32
2023-05-19T13:54:34.920Z,22.05
2023-05-19T13:57:01.578Z,21.87
2023-05-19T13:59:28.264Z,21.63
2023-05-19T14:01:54.871Z,21.39
2023-05-19T14:04:21.479Z,21.35
2023-05-19T14:06:47.919Z,21.50
2023-05-19T14:09:15.887Z,21.85
2023-05-19T14:11:43.173Z,22.27
2023-05-19T14:14:11.269Z,22.25
2023-05-19T14:16:38.411Z,22.30
2023-05-19T14:19:04.965Z,22.57
2023-05-19T14:21:32.480Z,22.54
2023-05-19T14:23:59.204Z,22.10
2023-05-19T14:26:27.363Z,21.96
2023-05-19T14:28:56.904Z,21.67
2023-05-19T14:31:23.623Z,21.73
2023-05-19T14:33:51.253Z,21.87
2023-05-19T14:36:17.737Z,21.88
2023-05-19T14:38:44.451Z,22.54
2023-05-19T14:41:10.883Z,23.13
2023-05-19T14:43:37.247Z,23.19
2023-05-19T14:46:03.603Z,22.80
2023-05-19T14:48:30.101Z,22.71
2023-05-19T14:50:56.447Z,22.69
2023-05-19T14:53:22.815Z,22.64
2023-05-19T14:55:49.581Z,22.07
2023-05-19T14:58:27.434Z,22.05
2023-05-19T15:00:57.631Z,22.17
2023-05-19T15:03:24.122Z,22.28
2023-05-19T15:05:50.517Z,22.06
2023-05-19T15:08:17.167Z,21.93
2023-05-19T15:10:43.558Z,21.51
2023-05-19T15:13:10.286Z,21.37
2023-05-19T15:15:36.714Z,21.26
2023-05-19T15:18:03.141Z,21.06
2023-05-19T15:20:29.730Z,21.10
2023-05-19T15:22:56.137Z,21.12
2023-05-19T15:25:22.533Z,21.38
2023-05-19T15:27:48.905Z,21.67
2023-05-19T15:30:15.337Z,21.93
2023-05-19T15:32:41.840Z,21.64
2023-05-19T15:35:08.585Z,21.17
2023-05-19T15:37:34.963Z,21.01
2023-05-19T15:40:01.307Z,20.91
2023-05-19T15:42:27.757Z,20.81
2023-05-19T15:44:54.470Z,20.90
2023-05-19T15:47:20.851Z,20.79
2023-05-19T15:49:47.747Z,20.76
2023-05-19T15:52:14.230Z,20.67
2023-05-19T15:54:40.801Z,20.55
2023-05-19T15:57:07.328Z,20.46
2023-05-19T15:59:33.751Z,20.51
2023-05-19T16:02:00.411Z,20.50
2023-05-19T16:04:26.809Z,20.30
2023-05-19T16:06:53.210Z,20.26
2023-05-19T16:09:19.598Z,20.24
2023-05-19T16:11:45.970Z,20.17
2023-05-19T16:14:12.299Z,20.10
2023-05-19T16:16:38.700Z,20.10
2023-05-19T16:19:05.167Z,20.00
2023-05-19T16:21:32.128Z,20.05
2023-05-19T16:23:58.485Z,20.02
2023-05-19T16:26:24.893Z,19.94
2023-05-19T16:28:51.239Z,20.00
2023-05-19T16:31:17.680Z,19.90
2023-05-19T16:33:44.121Z,19.75
2023-05-19T16:36:10.698Z,19.71
2023-05-19T16:38:37.065Z,19.73
2023-05-19T16:41:05.108Z,19.79
2023-05-19T16:43:33.753Z,19.73
2023-05-19T16:46:03.240Z,19.79
2023-05-19T16:48:29.704Z,19.90
2023-05-19T16:50:59.255Z,19.85
2023-05-19T16:53:25.614Z,19.85
2023-05-19T16:55:52.008Z,19.89
2023-05-19T16:58:18.401Z,19.85
2023-05-19T17:00:44.817Z,19.87
2023-05-19T17:03:11.621Z,19.83
2023-05-19T17:05:41.645Z,19.76
2023-05-19T17:08:07.995Z,19.74
2023-05-19T17:10:34.752Z,19.66
2023-05-19T17:13:01.317Z,19.50
2023-05-19T17:15:27.659Z,19.43
2023-05-19T17:17:54.045Z,19.30
2023-05-19T17:20:20.628Z,19.21
2023-05-19T17:22:47.004Z,19.16
2023-05-19T17:25:13.356Z,19.22
2023-05-19T17:27:39.721Z,19.29
2023-05-19T17:30:06.990Z,19.48
2023-05-19T17:32:38.407Z,19.46
2023-05-19T17:35:09.021Z,19.55
2023-05-19T17:37:36.287Z,19.65
2023-05-19T17:40:02.790Z,19.64
2023-05-19T17:42:29.195Z,19.71
2023-05-19T17:44:55.708Z,19.84
2023-05-19T17:47:22.184Z,19.86
2023-05-19T17:49:48.630Z,19.89
2023-05-19T17:52:15.793Z,19.96
2023-05-19T17:54:42.403Z,20.16
2023-05-19T17:57:12.658Z,20.13
2023-05-19T17:59:39.220Z,20.13
2023-05-19T18:02:05.986Z,20.42
2023-05-19T18:04:32.798Z,20.35
2023-05-19T18:07:00.492Z,20.18
2023-05-19T18:09:29.388Z,20.10
2023-05-19T18:11:56.821Z,19.87
2023-05-19T18:14:23.236Z,19.67
2023-05-19T18:16:49.986Z,19.58
2023-05-19T18:19:16.483Z,19.39
2023-05-19T18:21:42.919Z,19.06
2023-05-19T18:24:09.331Z,18.76
2023-05-19T18:26:37.680Z,18.57
2023-05-19T18:29:04.887Z,18.40
2023-05-19T18:31:31.484Z,18.22
2023-05-19T18:33:57.871Z,18.10
2023-05-19T18:36:24.247Z,17.95
2023-05-19T18:38:50.666Z,17.81
2023-05-19T18:41:17.074Z,17.70
2023-05-19T18:43:43.657Z,17.60
2023-05-19T18:46:10.334Z,17.46
2023-05-19T18:48:36.947Z,17.33
2023-05-19T18:51:03.782Z,17.23
2023-05-19T18:53:34.580Z,17.19
2023-05-19T18:56:00.960Z,17.11
2023-05-19T18:58:27.329Z,17.10
2023-05-19T19:00:57.726Z,17.04
2023-05-19T19:03:24.554Z,17.06
2023-05-19T19:05:57.989Z,16.98
2023-05-19T19:08:25.011Z,16.94
2023-05-19T19:10:52.053Z,16.87
2023-05-19T19:13:20.904Z,16.88
2023-05-19T19:15:47.248Z,16.89
2023-05-19T19:18:13.666Z,16.84
2023-05-19T19:20:40.128Z,16.77
2023-05-19T19:23:06.790Z,16.68
2023-05-19T19:25:33.552Z,16.67
2023-05-19T19:28:00.110Z,16.60
2023-05-19T19:30:26.965Z,16.58
2023-05-19T19:32:54.737Z,16.54
2023-05-19T19:35:21.223Z,16.40
2023-05-19T19:37:47.646Z,16.44
2023-05-19T19:40:14.104Z,16.34
2023-05-19T19:42:40.614Z,16.30
2023-05-19T19:45:07.492Z,16.28
2023-05-19T19:47:33.922Z,16.19
2023-05-19T19:50:02.510Z,16.21
2023-05-19T19:52:28.872Z,16.08
2023-05-19T19:54:55.332Z,16.03
2023-05-19T19:57:21.688Z,15.96
2023-05-19T19:59:54.904Z,16.03
2023-05-19T20:02:21.647Z,15.97
2023-05-19T20:04:48.544Z,15.96
2023-05-19T20:07:15.192Z,15.86
2023-05-19T20:09:41.612Z,15.98
2023-05-19T20:12:07.990Z,16.02
2023-05-19T20:14:34.377Z,15.98
2023-05-19T20:17:00.731Z,15.98
2023-05-19T20:19:27.562Z,15.95
2023-05-19T20:21:53.933Z,15.96
2023-05-19T20:24:20.293Z,15.91
2023-05-19T20:26:46.982Z,15.90
2023-05-19T20:29:13.361Z,15.92
2023-05-19T20:31:39.690Z,15.99
2023-05-19T20:34:06.208Z,15.95
2023-05-19T20:36:32.720Z,16.01
2023-05-19T20:38:59.573Z,16.02
2023-05-19T20:41:25.917Z,15.97
2023-05-19T20:43:52.280Z,16.03
2023-05-19T20:46:18.711Z,15.95
2023-05-19T20:48:45.311Z,15.99
2023-05-19T20:51:11.808Z,16.05
2023-05-19T20:53:38.269Z,16.10
2023-05-19T20:56:06.693Z,16.05
2023-05-19T20:58:33.072Z,16.08
2023-05-19T21:00:59.468Z,16.09
2023-05-19T21:03:27.065Z,16.10
2023-05-19T21:05:54.243Z,16.07
2023-05-19T21:08:20.837Z,16.06
2023-05-19T21:10:47.348Z,16.02
2023-05-19T21:13:13.739Z,15.99
2023-05-19T21:15:40.336Z,15.98
2023-05-19T21:18:07.069Z,16.10
2023-05-19T21:20:34.132Z,16.14
2023-05-19T21:23:00.875Z,16.18
2023-05-19T21:25:27.774Z,16.17
2023-05-19T21:27:57.792Z,16.19
2023-05-19T21:30:24.929Z,16.20
2023-05-19T21:32:51.314Z,16.22
2023-05-19T21:35:17.821Z,16.16
2023-05-19T21:37:44.229Z,16.17
2023-05-19T21:40:11.094Z,16.17
2023-05-19T21:42:37.560Z,16.16
2023-05-19T21:45:04.233Z,16.14
2023-05-19T21:47:30.660Z,16.14
2023-05-19T21:49:57.034Z,16.11
2023-05-19T21:52:23.454Z,16.08
2023-05-19T21:54:51.815Z,15.99
2023-05-19T21:57:18.163Z,16.05
2023-05-19T21:59:44.974Z,16.03
2023-05-19T22:02:11.466Z,15.98
2023-05-19T22:04:38.481Z,15.88
2023-05-19T22:07:06.763Z,15.87
2023-05-19T22:09:33.269Z,15.86
2023-05-19T22:11:59.657Z,15.85
2023-05-19T22:14:26.439Z,15.75
2023-05-19T22:16:53.042Z,15.68
2023-05-19T22:19:20.027Z,15.64
2023-05-19T22:21:46.614Z,15.66
2023-05-19T22:24:13.001Z,15.59
2023-05-19T22:26:42.560Z,15.59
2023-05-19T22:29:14.839Z,15.49
2023-05-19T22:31:41.225Z,15.46
2023-05-19T22:34:07.951Z,15.42
2023-05-19T22:36:34.332Z,15.53
2023-05-19T22:39:00.995Z,15.55
2023-05-19T22:41:27.327Z,15.47
2023-05-19T22:43:53.717Z,15.48
2023-05-19T22:46:20.099Z,15.42
2023-05-19T22:48:46.428Z,15.36
2023-05-19T22:51:12.898Z,15.38
2023-05-19T22:53:39.263Z,15.43
2023-05-19T22:56:05.818Z,15.44
2023-05-19T22:58:32.262Z,15.50
2023-05-19T23:00:58.636Z,15.51
2023-05-19T23:03:25.059Z,15.52
2023-05-19T23:05:51.427Z,15.55
2023-05-19T23:08:17.756Z,15.56
2023-05-19T23:10:44.473Z,15.59
2023-05-19T23:13:11.829Z,15.58
2023-05-19T23:15:38.159Z,15.58
2023-05-19T23:18:07.233Z,15.55
2023-05-19T23:20:34.350Z,15.52
2023-05-19T23:23:01.241Z,15.53
2023-05-19T23:25:27.712Z,15.57
2023-05-19T23:27:54.184Z,15.53
2023-05-19T23:30:20.590Z,15.53
2023-05-19T23:32:47.002Z,15.60
2023-05-19T23:35:16.010Z,15.56
2023-05-19T23:37:42.610Z,15.52
2023-05-19T23:40:10.462Z,15.52
2023-05-19T23:42:37.155Z,15.54
2023-05-19T23:45:04.363Z,15.54
2023-05-19T23:47:30.771Z,15.56
2023-05-19T23:49:57.122Z,15.53
2023-05-19T23:52:23.554Z,15.53
2023-05-19T23:54:50.046Z,15.50
2023-05-19T23:57:16.392Z,15.52
2023-05-19T23:59:43.001Z,15.53
